Main page
METAR-TAF:

METAR-TAF

Airports :

Bintulu Airport

Bintulu, Malaysia

latitude: 03-12N, longitude: 113-02E, elevation: 2 m

Current weather observation

The report was made 1 hour and 6 minutes ago, at 03:00 UTC
Wind 2 kt from variable directions
Temperature 32°C
Humidity 67%
Pressure 1008 hPa
Visibility 10 km or more
Few clouds at a height of 1400 ft

METAR: WBGB 190300Z VRB02KT 9999 FEW014 32/25 Q1008

Time: 12:06 (04:06 UTC)

Forecast

The report was made 5 hours and 6 minutes ago, at 23:00 UTC
Forecast valid from 19 at 00 UTC to 20 at 00 UTC
Wind 3 kt from variable directions
Visibility 10 km or more
Few clouds at a height of 1600 ft
Temporary
from 19 at 06 UTC to 19 at 10 UTC
Wind 10 kt from the West/Northwest
Visibility: 5000 m
Few clouds at a height of 1500 ft, Cumulonimbus.
Scattered clouds at a height of 1600 ft
thunderstorm, rain,

TAF: WBGB 182300Z 1900/2000 VRB03KT 9999 FEW016 TEMPO 1906/1910 30010KT 5000 TSRA FEW015CB SCT016

Weather observations and forecasts of more than 4000 airports (METAR and TAF reports).

The available stations are represented by yellow and red dots on the map.

Hover mouse over dot to see the name of the station.

Then click to see weather observations and forecasts.

To change the map : click on the green buttons with a black cross to zoom in, on the green button with a dash to zoom out, or on the green arrows for adjacent maps.


METAR-TAF: